createdAt,value
2018-07-07T00:00:52.047Z,49.91
2018-07-07T00:01:52.272Z,49.82
2018-07-07T00:02:52.289Z,49.72
2018-07-07T00:03:52.429Z,49.69
2018-07-07T00:04:52.585Z,50.20
2018-07-07T00:05:52.710Z,50.20
2018-07-07T00:06:52.851Z,50.27
2018-07-07T00:07:52.972Z,50.37
2018-07-07T00:08:53.109Z,50.46
2018-07-07T00:09:53.249Z,50.37
2018-07-07T00:10:53.407Z,50.56
2018-07-07T00:11:53.548Z,50.56
2018-07-07T00:12:53.689Z,50.46
2018-07-07T00:13:53.836Z,50.76
2018-07-07T00:14:54.009Z,50.76
2018-07-07T00:15:54.140Z,50.76
2018-07-07T00:16:54.281Z,50.85
2018-07-07T00:17:54.415Z,50.76
2018-07-07T00:18:54.589Z,50.95
2018-07-07T00:19:54.714Z,51.04
2018-07-07T00:20:54.857Z,51.23
2018-07-07T00:21:54.993Z,51.53
2018-07-07T00:22:55.192Z,51.62
2018-07-07T00:23:55.389Z,51.81
2018-07-07T00:24:55.399Z,51.69
2018-07-07T00:25:55.540Z,51.88
2018-07-07T00:26:55.707Z,52.17
2018-07-07T00:27:55.845Z,52.17
2018-07-07T00:28:55.983Z,52.08
2018-07-07T00:29:56.122Z,52.26
2018-07-07T00:30:56.282Z,52.46
2018-07-07T00:31:56.419Z,52.26
2018-07-07T00:32:56.560Z,52.75
2018-07-07T00:33:56.700Z,52.46
2018-07-07T00:34:56.933Z,52.36
2018-07-07T00:35:57.017Z,52.65
2018-07-07T00:36:57.153Z,52.55
2018-07-07T00:37:57.292Z,52.75
2018-07-07T00:38:57.471Z,53.13
2018-07-07T00:39:57.605Z,53.03
2018-07-07T00:40:57.739Z,53.97
2018-07-07T00:41:57.903Z,53.52
2018-07-07T00:42:58.051Z,54.06
2018-07-07T00:43:58.188Z,53.68
2018-07-07T00:44:58.327Z,53.58
2018-07-07T00:45:58.487Z,53.97
2018-07-07T00:46:58.620Z,54.06
2018-07-07T00:47:58.757Z,53.97
2018-07-07T00:48:58.898Z,53.68
2018-07-07T00:49:59.084Z,53.87
2018-07-07T00:50:59.226Z,53.68
2018-07-07T00:51:59.365Z,54.35
2018-07-07T00:52:59.514Z,54.45
2018-07-07T00:53:59.729Z,53.78
2018-07-07T00:54:59.741Z,53.78
2018-07-07T00:55:59.880Z,53.58
2018-07-07T00:57:00.016Z,53.87
2018-07-07T00:58:00.177Z,53.97
2018-07-07T00:59:00.313Z,53.68
2018-07-07T01:00:00.460Z,53.87
2018-07-07T01:01:00.603Z,53.68
2018-07-07T01:02:00.770Z,53.49
2018-07-07T01:03:00.903Z,53.58
2018-07-07T01:04:01.039Z,53.58
2018-07-07T01:05:01.182Z,53.11
2018-07-07T01:06:01.343Z,53.11
2018-07-07T01:07:01.479Z,53.68
2018-07-07T01:08:01.624Z,53.39
2018-07-07T01:09:01.755Z,53.20
2018-07-07T01:10:01.896Z,53.87
2018-07-07T01:11:02.035Z,53.68
2018-07-07T01:12:02.173Z,53.87
2018-07-07T01:13:02.315Z,53.97
2018-07-07T01:14:02.451Z,53.78
2018-07-07T01:15:02.591Z,53.97
2018-07-07T01:16:02.738Z,53.20
2018-07-07T01:17:02.875Z,53.58
2018-07-07T01:18:03.012Z,53.58
2018-07-07T01:19:03.150Z,53.20
2018-07-07T01:20:03.286Z,53.78
2018-07-07T01:21:03.420Z,53.68
2018-07-07T01:22:03.560Z,54.35
2018-07-07T01:23:03.697Z,53.49
2018-07-07T01:24:03.840Z,53.58
2018-07-07T01:25:03.980Z,53.87
2018-07-07T01:26:04.128Z,53.87
2018-07-07T01:27:04.267Z,53.78
2018-07-07T01:28:04.403Z,53.56
2018-07-07T01:29:04.545Z,53.94
2018-07-07T01:30:04.686Z,53.94
2018-07-07T01:31:04.833Z,53.87
2018-07-07T01:32:04.968Z,53.36
2018-07-07T01:33:05.106Z,54.06
2018-07-07T01:34:05.244Z,53.75
2018-07-07T01:35:05.448Z,53.85
2018-07-07T01:36:05.461Z,53.94
2018-07-07T01:37:05.599Z,53.94
2018-07-07T01:38:05.734Z,53.94
2018-07-07T01:39:05.874Z,54.23
2018-07-07T01:40:06.014Z,54.42
2018-07-07T01:41:06.152Z,54.52
2018-07-07T01:42:06.296Z,54.42
2018-07-07T01:43:06.442Z,54.90
2018-07-07T01:44:06.577Z,54.61
2018-07-07T01:45:06.724Z,54.61
2018-07-07T01:46:06.864Z,55.00
2018-07-07T01:47:07.009Z,55.19
2018-07-07T01:48:07.141Z,55.00
2018-07-07T01:49:07.284Z,54.61
2018-07-07T01:50:07.428Z,54.61
2018-07-07T01:51:07.565Z,54.80
2018-07-07T01:52:07.698Z,54.90
2018-07-07T01:53:07.839Z,55.29
2018-07-07T01:54:07.982Z,55.47
2018-07-07T01:55:08.126Z,54.90
2018-07-07T01:56:08.267Z,55.19
2018-07-07T01:57:08.411Z,55.00
2018-07-07T01:58:08.547Z,55.19
2018-07-07T01:59:08.688Z,54.90
2018-07-07T02:00:08.832Z,55.47
2018-07-07T02:01:08.972Z,55.86
2018-07-07T02:02:09.109Z,55.10
2018-07-07T02:03:09.249Z,55.38
2018-07-07T02:04:09.393Z,55.47
2018-07-07T02:05:09.533Z,55.57
2018-07-07T02:06:09.690Z,55.96
2018-07-07T02:07:09.853Z,55.77
2018-07-07T02:08:10.031Z,55.67
2018-07-07T02:09:10.153Z,55.86
2018-07-07T02:10:10.298Z,55.67
2018-07-07T02:11:10.436Z,55.67
2018-07-07T02:12:10.588Z,56.24
2018-07-07T02:13:10.722Z,55.86
2018-07-07T02:14:10.859Z,56.34
2018-07-07T02:15:10.995Z,56.44
2018-07-07T02:16:11.150Z,55.67
2018-07-07T02:17:11.284Z,55.38
2018-07-07T02:18:11.425Z,55.67
2018-07-07T02:19:11.569Z,55.57
2018-07-07T02:20:11.723Z,55.67
2018-07-07T02:21:11.934Z,55.57
2018-07-07T02:22:12.023Z,55.57
2018-07-07T02:23:12.041Z,55.67
2018-07-07T02:24:12.189Z,55.96
2018-07-07T02:25:12.325Z,56.05
2018-07-07T02:26:12.464Z,56.31
2018-07-07T02:27:12.604Z,56.53
2018-07-07T02:28:12.744Z,56.79
2018-07-07T02:29:12.882Z,56.63
2018-07-07T02:30:13.013Z,56.73
2018-07-07T02:31:13.157Z,57.37
2018-07-07T02:32:13.311Z,57.37
2018-07-07T02:33:13.551Z,57.65
2018-07-07T02:34:13.566Z,57.37
2018-07-07T02:35:13.709Z,57.37
2018-07-07T02:36:13.873Z,57.56
2018-07-07T02:37:14.010Z,57.56
2018-07-07T02:38:14.152Z,57.37
2018-07-07T02:39:14.292Z,57.37
2018-07-07T02:40:14.457Z,57.18
2018-07-07T02:41:14.603Z,57.75
2018-07-07T02:42:14.724Z,57.65
2018-07-07T02:43:14.864Z,57.46
2018-07-07T02:44:15.024Z,57.56
2018-07-07T02:45:15.144Z,57.46
2018-07-07T02:46:15.320Z,57.56
2018-07-07T02:47:15.422Z,57.56
2018-07-07T02:48:15.586Z,57.85
2018-07-07T02:49:15.717Z,57.95
2018-07-07T02:50:15.856Z,58.33
2018-07-07T02:51:15.996Z,58.52
2018-07-07T02:52:16.156Z,58.33
2018-07-07T02:53:16.288Z,58.14
2018-07-07T02:54:16.428Z,58.39
2018-07-07T02:55:16.571Z,58.30
2018-07-07T02:56:16.730Z,57.95
2018-07-07T02:57:16.882Z,57.92
2018-07-07T02:58:17.023Z,58.39
2018-07-07T02:59:17.156Z,58.30
2018-07-07T03:00:17.337Z,57.92
2018-07-07T03:01:17.459Z,58.42
2018-07-07T03:02:17.602Z,58.20
2018-07-07T03:03:17.796Z,58.39
2018-07-07T03:04:17.911Z,58.49
2018-07-07T03:05:18.045Z,58.49
2018-07-07T03:06:18.191Z,58.97
2018-07-07T03:07:18.318Z,58.11
2018-07-07T03:08:18.465Z,58.49
2018-07-07T03:09:18.704Z,58.78
2018-07-07T03:10:18.710Z,58.20
2018-07-07T03:11:18.859Z,58.59
2018-07-07T03:12:19.005Z,58.20
2018-07-07T03:13:19.240Z,58.87
2018-07-07T03:14:19.252Z,58.59
2018-07-07T03:15:19.399Z,58.97
2018-07-07T03:16:19.542Z,58.87
2018-07-07T03:17:19.679Z,58.87
2018-07-07T03:18:19.815Z,59.06
2018-07-07T03:19:19.959Z,59.16
2018-07-07T03:20:20.123Z,59.04
2018-07-07T03:21:20.319Z,59.06
2018-07-07T03:22:20.337Z,59.42
2018-07-07T03:23:20.471Z,59.80
2018-07-07T03:24:20.623Z,59.90
2018-07-07T03:25:20.762Z,59.80
2018-07-07T03:26:20.897Z,59.42
2018-07-07T03:27:21.053Z,59.90
2018-07-07T03:28:21.286Z,59.61
2018-07-07T03:29:21.299Z,59.61
2018-07-07T03:30:21.435Z,59.52
2018-07-07T03:31:21.633Z,59.61
2018-07-07T03:32:21.767Z,59.71
2018-07-07T03:33:21.905Z,60.47
2018-07-07T03:34:22.042Z,60.25
2018-07-07T03:35:22.192Z,61.31
2018-07-07T03:36:22.362Z,61.69
2018-07-07T03:37:22.505Z,61.79
2018-07-07T03:38:22.638Z,61.69
2018-07-07T03:39:22.811Z,61.60
2018-07-07T03:40:23.011Z,61.60
2018-07-07T03:41:23.025Z,61.79
2018-07-07T03:42:23.162Z,61.88
2018-07-07T03:43:23.309Z,62.90
2018-07-07T03:44:23.455Z,63.57
2018-07-07T03:45:23.588Z,63.19
2018-07-07T03:46:23.729Z,63.29
2018-07-07T03:47:23.876Z,63.57
2018-07-07T03:48:24.016Z,62.33
2018-07-07T03:49:24.251Z,62.55
2018-07-07T03:50:24.297Z,62.46
2018-07-07T03:51:24.434Z,62.84
2018-07-07T03:52:24.576Z,62.46
2018-07-07T03:53:24.720Z,62.17
2018-07-07T03:54:24.852Z,62.26
2018-07-07T03:55:24.987Z,61.88
2018-07-07T03:56:25.128Z,61.88
2018-07-07T03:57:25.268Z,61.88
2018-07-07T03:58:25.404Z,61.60
2018-07-07T03:59:25.538Z,61.79
2018-07-07T04:00:25.687Z,61.60
2018-07-07T04:01:25.823Z,61.69
2018-07-07T04:02:25.966Z,61.69
2018-07-07T04:03:26.103Z,61.60
2018-07-07T04:04:26.247Z,61.60
2018-07-07T04:05:26.380Z,61.69
2018-07-07T04:06:26.517Z,61.88
2018-07-07T04:07:26.651Z,61.79
2018-07-07T04:08:26.792Z,61.82
2018-07-07T04:09:26.923Z,61.63
2018-07-07T04:10:27.065Z,61.63
2018-07-07T04:11:27.210Z,61.82
2018-07-07T04:12:27.343Z,61.34
2018-07-07T04:13:27.485Z,61.63
2018-07-07T04:14:27.619Z,61.91
2018-07-07T04:15:27.758Z,61.72
2018-07-07T04:16:27.904Z,61.82
2018-07-07T04:17:28.038Z,61.91
2018-07-07T04:18:28.175Z,62.68
2018-07-07T04:19:28.319Z,61.72
2018-07-07T04:20:28.449Z,62.26
2018-07-07T04:21:28.592Z,62.74
2018-07-07T04:22:28.731Z,63.32
2018-07-07T04:23:28.867Z,63.42
2018-07-07T04:24:29.009Z,64.56
2018-07-07T04:25:29.148Z,64.34
2018-07-07T04:26:29.292Z,64.34
2018-07-07T04:27:29.431Z,64.09
2018-07-07T04:28:29.622Z,63.99
2018-07-07T04:29:29.756Z,63.99
2018-07-07T04:30:29.911Z,64.34
2018-07-07T04:31:30.042Z,64.72
2018-07-07T04:32:30.182Z,65.68
2018-07-07T04:33:30.320Z,64.82
2018-07-07T04:34:30.456Z,65.39
2018-07-07T04:35:30.595Z,65.68
2018-07-07T04:36:30.736Z,65.88
2018-07-07T04:37:30.880Z,65.84
2018-07-07T04:38:31.045Z,65.84
2018-07-07T04:39:31.174Z,65.74
2018-07-07T04:40:31.322Z,65.78
2018-07-07T04:41:31.455Z,65.88
2018-07-07T04:42:31.614Z,65.88
2018-07-07T04:43:31.819Z,65.58
2018-07-07T04:44:31.839Z,64.92
2018-07-07T04:45:31.968Z,64.82
2018-07-07T04:46:32.129Z,64.56
2018-07-07T04:47:32.364Z,65.58
2018-07-07T04:48:32.373Z,65.62
2018-07-07T04:49:32.512Z,64.85
2018-07-07T04:50:32.664Z,65.23
2018-07-07T04:51:32.796Z,64.95
2018-07-07T04:52:32.936Z,64.85
2018-07-07T04:53:33.074Z,64.50
2018-07-07T04:54:33.227Z,64.50
2018-07-07T04:55:33.438Z,63.64
2018-07-07T04:56:33.475Z,63.35
2018-07-07T04:57:33.585Z,62.68
2018-07-07T04:58:33.744Z,62.30
2018-07-07T04:59:33.889Z,62.30
2018-07-07T05:00:34.021Z,62.01
2018-07-07T05:01:34.152Z,62.20
2018-07-07T05:02:34.319Z,62.42
2018-07-07T05:03:34.454Z,61.94
2018-07-07T05:04:34.627Z,62.13
2018-07-07T05:05:34.763Z,62.13
2018-07-07T05:06:34.954Z,61.94
2018-07-07T05:07:35.105Z,61.75
2018-07-07T05:08:35.239Z,61.85
2018-07-07T05:09:35.422Z,61.46
2018-07-07T05:10:35.534Z,61.66
2018-07-07T05:11:35.675Z,61.85
2018-07-07T05:12:35.839Z,61.18
2018-07-07T05:13:35.970Z,60.44
2018-07-07T05:14:36.111Z,60.72
2018-07-07T05:15:36.315Z,60.89
2018-07-07T05:16:36.404Z,60.72
2018-07-07T05:17:36.540Z,60.53
2018-07-07T05:18:36.679Z,60.35
2018-07-07T05:19:36.845Z,60.89
2018-07-07T05:20:36.980Z,61.08
2018-07-07T05:21:37.118Z,60.82
2018-07-07T05:22:37.260Z,61.59
2018-07-07T05:23:37.435Z,61.21
2018-07-07T05:24:37.557Z,60.72
2018-07-07T05:25:37.702Z,60.63
2018-07-07T05:26:37.837Z,60.35
2018-07-07T05:27:37.995Z,60.63
2018-07-07T05:28:38.133Z,60.05
2018-07-07T05:29:38.269Z,60.05
2018-07-07T05:30:38.403Z,59.96
2018-07-07T05:31:38.688Z,60.15
2018-07-07T05:32:38.714Z,60.44
2018-07-07T05:33:38.855Z,60.53
2018-07-07T05:34:39.008Z,60.25
2018-07-07T05:35:39.141Z,60.53
2018-07-07T05:36:39.286Z,60.53
2018-07-07T05:37:39.422Z,60.25
2018-07-07T05:38:39.569Z,60.05
2018-07-07T05:39:39.741Z,60.35
2018-07-07T05:40:39.879Z,60.53
2018-07-07T05:41:40.015Z,60.53
2018-07-07T05:42:40.170Z,60.25
2018-07-07T05:43:40.308Z,59.96
2018-07-07T05:44:40.445Z,60.57
2018-07-07T05:45:40.589Z,59.70
2018-07-07T05:46:40.801Z,59.80
2018-07-07T05:47:40.871Z,59.80
2018-07-07T05:48:41.009Z,59.51
2018-07-07T05:49:41.157Z,59.61
2018-07-07T05:50:41.303Z,59.41
2018-07-07T05:51:41.456Z,59.80
2018-07-07T05:52:41.595Z,59.51
2018-07-07T05:53:41.744Z,59.70
2018-07-07T05:54:41.888Z,59.12
2018-07-07T05:55:42.025Z,59.32
2018-07-07T05:56:42.230Z,59.22
2018-07-07T05:57:42.311Z,58.94
2018-07-07T05:58:42.451Z,59.12
2018-07-07T05:59:42.591Z,59.32
2018-07-07T06:00:42.762Z,59.61
2018-07-07T06:01:42.899Z,59.70
2018-07-07T06:02:43.038Z,59.80
2018-07-07T06:03:43.177Z,59.89
2018-07-07T06:04:43.343Z,59.03
2018-07-07T06:05:43.470Z,58.55
2018-07-07T06:06:43.611Z,58.84
2018-07-07T06:07:43.744Z,58.45
2018-07-07T06:08:43.888Z,59.12
2018-07-07T06:09:44.028Z,58.74
2018-07-07T06:10:44.170Z,58.84
2018-07-07T06:11:44.326Z,59.58
2018-07-07T06:12:44.458Z,60.15
2018-07-07T06:13:44.606Z,60.15
2018-07-07T06:14:44.740Z,59.99
2018-07-07T06:15:44.912Z,59.48
2018-07-07T06:16:45.048Z,59.86
2018-07-07T06:17:45.192Z,60.44
2018-07-07T06:18:45.354Z,60.53
2018-07-07T06:19:45.492Z,60.60
2018-07-07T06:20:45.654Z,61.37
2018-07-07T06:21:45.790Z,61.85
2018-07-07T06:22:45.930Z,61.66
2018-07-07T06:23:46.105Z,62.04
2018-07-07T06:24:46.232Z,61.66
2018-07-07T06:25:46.368Z,61.75
2018-07-07T06:26:46.513Z,61.75
2018-07-07T06:27:46.658Z,61.85
2018-07-07T06:28:46.793Z,61.56
2018-07-07T06:29:46.934Z,62.04
2018-07-07T06:30:47.074Z,61.98
2018-07-07T06:31:47.219Z,61.37
2018-07-07T06:32:47.359Z,61.66
2018-07-07T06:33:47.497Z,61.27
2018-07-07T06:34:47.629Z,61.37
2018-07-07T06:35:47.766Z,61.85
2018-07-07T06:36:47.909Z,62.04
2018-07-07T06:37:48.053Z,60.41
2018-07-07T06:38:48.189Z,60.44
2018-07-07T06:39:48.332Z,61.59
2018-07-07T06:40:48.473Z,61.30
2018-07-07T06:41:48.613Z,61.21
2018-07-07T06:42:48.751Z,60.92
2018-07-07T06:43:48.988Z,60.44
2018-07-07T06:44:49.035Z,59.51
2018-07-07T06:45:49.179Z,59.00
2018-07-07T06:46:49.600Z,59.67
2018-07-07T06:47:49.441Z,58.64
2018-07-07T06:48:49.581Z,57.97
2018-07-07T06:49:49.723Z,57.95
2018-07-07T06:50:50.472Z,58.17
2018-07-07T06:51:50.018Z,58.45
2018-07-07T06:52:50.159Z,57.78
2018-07-07T06:53:50.323Z,56.15
2018-07-07T06:54:50.433Z,55.96
2018-07-07T06:55:50.578Z,56.24
2018-07-07T06:56:50.718Z,55.26
2018-07-07T06:57:50.856Z,55.00
2018-07-07T06:58:50.997Z,56.44
2018-07-07T06:59:51.163Z,56.73
2018-07-07T07:00:51.278Z,56.44
2018-07-07T07:01:51.418Z,55.51
2018-07-07T07:02:52.465Z,54.04
2018-07-07T07:03:51.676Z,53.39
2018-07-07T07:04:51.818Z,53.49
2018-07-07T07:05:51.964Z,53.87
2018-07-07T07:06:52.105Z,54.35
2018-07-07T07:07:52.242Z,54.28
2018-07-07T07:08:52.382Z,53.90
2018-07-07T07:09:52.521Z,54.00
2018-07-07T07:10:52.671Z,53.23
2018-07-07T07:11:52.853Z,53.35
2018-07-07T07:12:52.948Z,52.84
2018-07-07T07:13:53.102Z,52.77
2018-07-07T07:14:53.243Z,52.58
2018-07-07T07:15:53.382Z,52.29
2018-07-07T07:16:53.526Z,52.20
2018-07-07T07:17:53.667Z,52.00
2018-07-07T07:18:53.801Z,52.10
2018-07-07T07:19:53.947Z,51.64
2018-07-07T07:20:54.087Z,50.01
2018-07-07T07:21:54.248Z,47.80
2018-07-07T07:22:54.384Z,47.70
2018-07-07T07:23:54.528Z,47.20
2018-07-07T07:24:54.680Z,46.53
2018-07-07T07:25:54.818Z,46.64
2018-07-07T07:26:54.960Z,46.74
2018-07-07T07:27:55.131Z,47.03
2018-07-07T07:28:55.269Z,46.74
2018-07-07T07:29:55.413Z,46.36
2018-07-07T07:30:55.590Z,45.87
2018-07-07T07:31:55.708Z,46.06
2018-07-07T07:32:55.887Z,46.26
2018-07-07T07:33:56.005Z,45.01
2018-07-07T07:34:56.142Z,42.41
2018-07-07T07:35:56.309Z,41.74
2018-07-07T07:36:56.526Z,41.93
2018-07-07T07:37:56.597Z,41.08
2018-07-07T07:38:56.735Z,40.61
2018-07-07T07:39:56.877Z,40.01
2018-07-07T07:40:57.047Z,39.81
2018-07-07T07:41:57.177Z,39.91
2018-07-07T07:42:57.314Z,40.97
2018-07-07T07:43:57.475Z,41.45
2018-07-07T07:44:57.615Z,40.58
2018-07-07T07:45:57.749Z,40.88
2018-07-07T07:46:57.892Z,41.64
2018-07-07T07:47:58.033Z,41.06
2018-07-07T07:48:58.196Z,40.70
2018-07-07T07:49:58.328Z,41.16
2018-07-07T07:50:58.467Z,41.55
2018-07-07T07:51:58.613Z,41.18
2018-07-07T07:52:58.778Z,40.89
2018-07-07T07:53:58.891Z,41.76
2018-07-07T07:54:59.024Z,41.66
2018-07-07T07:55:59.167Z,41.38
2018-07-07T07:56:59.337Z,41.86
2018-07-07T07:57:59.460Z,42.14
2018-07-07T07:58:59.671Z,41.95
2018-07-07T07:59:59.741Z,41.28
2018-07-07T08:00:59.924Z,41.28
2018-07-07T08:02:00.053Z,40.80
2018-07-07T08:03:00.193Z,40.63
2018-07-07T08:04:00.334Z,40.72
2018-07-07T08:05:00.483Z,41.88
2018-07-07T08:06:00.610Z,42.07
2018-07-07T08:07:00.753Z,42.16
2018-07-07T08:08:00.886Z,41.97
2018-07-07T08:09:01.059Z,41.20
2018-07-07T08:10:01.191Z,40.63
2018-07-07T08:11:01.343Z,39.66
2018-07-07T08:12:01.501Z,39.76
2018-07-07T08:13:01.641Z,40.26
2018-07-07T08:14:01.785Z,40.72
2018-07-07T08:15:01.923Z,40.72
2018-07-07T08:16:02.079Z,39.97
2018-07-07T08:17:02.206Z,40.26
2018-07-07T08:18:02.348Z,40.45
2018-07-07T08:19:02.512Z,40.16
2018-07-07T08:20:02.655Z,39.97
2018-07-07T08:21:02.796Z,40.36
2018-07-07T08:22:02.937Z,40.74
2018-07-07T08:23:03.078Z,40.94
2018-07-07T08:24:03.219Z,40.16
2018-07-07T08:25:03.360Z,39.78
2018-07-07T08:26:04.019Z,39.39
2018-07-07T08:27:03.694Z,39.51
2018-07-07T08:28:03.836Z,39.89
2018-07-07T08:29:04.000Z,39.78
2018-07-07T08:30:04.149Z,39.87
2018-07-07T08:31:04.283Z,39.49
2018-07-07T08:32:04.423Z,39.89
2018-07-07T08:33:04.566Z,40.28
2018-07-07T08:34:04.702Z,41.24
2018-07-07T08:35:04.841Z,40.76
2018-07-07T08:36:04.978Z,41.14
2018-07-07T08:37:05.129Z,42.11
2018-07-07T08:38:05.272Z,41.63
2018-07-07T08:39:05.412Z,41.72
2018-07-07T08:40:05.563Z,40.57
2018-07-07T08:41:05.698Z,41.14
2018-07-07T08:42:05.845Z,41.24
2018-07-07T08:43:05.975Z,40.57
2018-07-07T08:44:07.044Z,41.14
2018-07-07T08:45:06.192Z,41.34
2018-07-07T08:46:06.332Z,41.82
2018-07-07T08:47:06.476Z,42.21
2018-07-07T08:48:06.612Z,41.92
2018-07-07T08:49:06.752Z,43.27
2018-07-07T08:50:06.927Z,43.65
2018-07-07T08:51:07.036Z,44.04
2018-07-07T08:52:07.174Z,44.93
2018-07-07T08:53:07.318Z,44.64
2018-07-07T08:54:07.454Z,44.64
2018-07-07T08:55:07.592Z,44.73
2018-07-07T08:56:07.730Z,44.25
2018-07-07T08:57:07.887Z,43.77
2018-07-07T08:58:08.026Z,44.06
2018-07-07T08:59:08.160Z,43.96
2018-07-07T09:00:08.306Z,43.87
2018-07-07T09:01:08.448Z,44.35
2018-07-07T09:02:08.633Z,44.73
2018-07-07T09:03:08.746Z,44.06
2018-07-07T09:04:08.882Z,43.98
2018-07-07T09:05:09.021Z,44.66
2018-07-07T09:06:09.188Z,44.08
2018-07-07T09:07:09.328Z,44.46
2018-07-07T09:08:09.469Z,44.95
2018-07-07T09:09:09.614Z,45.53
2018-07-07T09:10:09.776Z,44.66
2018-07-07T09:11:09.909Z,45.04
2018-07-07T09:12:10.057Z,45.62
2018-07-07T09:13:10.191Z,45.82
2018-07-07T09:14:10.455Z,45.62
2018-07-07T09:15:10.492Z,46.11
2018-07-07T09:16:10.625Z,46.30
2018-07-07T09:17:10.770Z,46.88
2018-07-07T09:18:10.915Z,47.36
2018-07-07T09:19:11.073Z,47.17
2018-07-07T09:20:11.205Z,47.65
2018-07-07T09:21:11.363Z,47.65
2018-07-07T09:22:11.483Z,47.55
2018-07-07T09:23:11.625Z,47.77
2018-07-07T09:24:11.763Z,47.29
2018-07-07T09:25:11.932Z,47.19
2018-07-07T09:26:12.063Z,47.09
2018-07-07T09:27:12.205Z,47.00
2018-07-07T09:28:12.344Z,46.81
2018-07-07T09:29:12.481Z,46.23
2018-07-07T09:30:12.626Z,46.51
2018-07-07T09:31:12.925Z,45.84
2018-07-07T09:32:12.956Z,45.36
2018-07-07T09:33:13.123Z,44.68
2018-07-07T09:34:13.244Z,44.68
2018-07-07T09:35:13.366Z,44.68
2018-07-07T09:36:13.508Z,44.20
2018-07-07T09:37:13.650Z,44.10
2018-07-07T09:38:13.793Z,43.33
2018-07-07T09:39:13.937Z,42.56
2018-07-07T09:40:14.088Z,43.24
2018-07-07T09:41:14.229Z,43.24
2018-07-07T09:42:14.375Z,43.35
2018-07-07T09:43:14.511Z,42.77
2018-07-07T09:44:14.648Z,42.29
2018-07-07T09:45:14.798Z,42.29
2018-07-07T09:46:14.929Z,41.61
2018-07-07T09:47:15.072Z,41.61
2018-07-07T09:48:15.244Z,42.29
2018-07-07T09:49:15.330Z,42.39
2018-07-07T09:50:15.481Z,42.19
2018-07-07T09:51:15.623Z,41.81
2018-07-07T09:52:15.782Z,41.81
2018-07-07T09:53:15.914Z,41.81
2018-07-07T09:54:16.055Z,41.91
2018-07-07T09:55:16.197Z,41.81
2018-07-07T09:56:16.346Z,42.12
2018-07-07T09:57:16.481Z,42.29
2018-07-07T09:58:16.624Z,41.52
2018-07-07T09:59:16.771Z,42.00
2018-07-07T10:00:16.915Z,40.94
2018-07-07T10:01:17.054Z,40.86
2018-07-07T10:02:17.188Z,41.15
2018-07-07T10:03:17.335Z,41.23
2018-07-07T10:04:17.498Z,41.15
2018-07-07T10:05:17.611Z,41.63
2018-07-07T10:06:17.750Z,41.05
2018-07-07T10:07:17.908Z,41.35
2018-07-07T10:08:18.046Z,41.83
2018-07-07T10:09:18.191Z,40.86
2018-07-07T10:10:18.320Z,40.57
2018-07-07T10:11:18.463Z,40.47
2018-07-07T10:12:18.596Z,39.41
2018-07-07T10:13:18.741Z,40.77
2018-07-07T10:14:18.887Z,40.57
2018-07-07T10:15:19.028Z,40.50
2018-07-07T10:16:19.174Z,40.30
2018-07-07T10:17:19.317Z,40.11
2018-07-07T10:18:19.460Z,39.53
2018-07-07T10:19:19.604Z,39.34
2018-07-07T10:20:19.740Z,38.76
2018-07-07T10:21:19.890Z,39.34
2018-07-07T10:22:20.034Z,37.88
2018-07-07T10:23:20.181Z,38.56
2018-07-07T10:24:20.325Z,38.48
2018-07-07T10:25:20.486Z,37.90
2018-07-07T10:26:20.685Z,36.65
2018-07-07T10:27:20.909Z,36.26
2018-07-07T10:28:20.949Z,37.02
2018-07-07T10:29:21.087Z,37.62
2018-07-07T10:30:21.246Z,37.52
2018-07-07T10:31:21.375Z,38.10
2018-07-07T10:32:21.583Z,38.20
2018-07-07T10:33:21.692Z,37.81
2018-07-07T10:34:21.870Z,37.81
2018-07-07T10:35:21.990Z,37.32
2018-07-07T10:36:22.123Z,37.71
2018-07-07T10:37:22.298Z,37.90
2018-07-07T10:38:22.434Z,37.23
2018-07-07T10:39:22.554Z,38.10
2018-07-07T10:40:22.696Z,38.10
2018-07-07T10:41:22.840Z,37.82
2018-07-07T10:42:22.997Z,38.68
2018-07-07T10:43:23.136Z,38.89
2018-07-07T10:44:23.274Z,38.50
2018-07-07T10:45:23.444Z,38.31
2018-07-07T10:46:23.555Z,38.99
2018-07-07T10:47:23.721Z,38.21
2018-07-07T10:48:23.841Z,36.49
2018-07-07T10:49:23.976Z,36.40
2018-07-07T10:50:24.125Z,36.49
2018-07-07T10:51:24.259Z,35.52
2018-07-07T10:52:24.405Z,34.94
2018-07-07T10:53:24.552Z,34.84
2018-07-07T10:54:24.702Z,34.75
2018-07-07T10:55:24.891Z,34.75
2018-07-07T10:56:25.126Z,34.94
2018-07-07T10:57:25.152Z,35.72
2018-07-07T10:58:25.317Z,35.52
2018-07-07T10:59:25.437Z,35.72
2018-07-07T11:00:25.575Z,36.12
2018-07-07T11:01:25.719Z,36.20
2018-07-07T11:02:25.865Z,36.40
2018-07-07T11:03:26.024Z,35.81
2018-07-07T11:04:26.160Z,34.84
2018-07-07T11:05:26.304Z,35.72
2018-07-07T11:06:26.450Z,35.62
2018-07-07T11:07:26.584Z,35.62
2018-07-07T11:08:26.733Z,35.62
2018-07-07T11:09:26.877Z,34.84
2018-07-07T11:10:27.020Z,34.57
2018-07-07T11:11:27.161Z,34.75
2018-07-07T11:12:27.314Z,34.57
2018-07-07T11:13:27.455Z,34.75
2018-07-07T11:14:27.604Z,34.94
2018-07-07T11:15:27.753Z,35.05
2018-07-07T11:16:27.899Z,35.15
2018-07-07T11:17:28.032Z,34.96
2018-07-07T11:18:28.180Z,33.99
2018-07-07T11:19:28.322Z,34.67
2018-07-07T11:20:28.462Z,33.99
2018-07-07T11:21:28.607Z,34.47
2018-07-07T11:22:28.750Z,34.57
2018-07-07T11:23:28.890Z,34.86
2018-07-07T11:24:29.030Z,34.67
2018-07-07T11:25:29.174Z,34.67
2018-07-07T11:26:29.321Z,34.47
2018-07-07T11:27:29.460Z,34.67
2018-07-07T11:28:29.609Z,34.19
2018-07-07T11:29:29.749Z,34.30
2018-07-07T11:30:30.568Z,33.91
2018-07-07T11:31:29.984Z,34.30
2018-07-07T11:32:30.151Z,34.20
2018-07-07T11:33:30.260Z,33.91
2018-07-07T11:34:30.406Z,32.46
2018-07-07T11:35:30.527Z,32.37
2018-07-07T11:36:30.782Z,32.47
2018-07-07T11:37:30.828Z,32.84
2018-07-07T11:38:30.966Z,33.06
2018-07-07T11:39:31.117Z,32.76
2018-07-07T11:40:31.254Z,33.15
2018-07-07T11:41:31.398Z,33.15
2018-07-07T11:42:31.547Z,33.15
2018-07-07T11:43:31.700Z,33.04
2018-07-07T11:44:31.840Z,33.34
2018-07-07T11:45:32.027Z,33.25
2018-07-07T11:46:32.133Z,33.15
2018-07-07T11:47:32.271Z,32.96
2018-07-07T11:48:32.414Z,33.15
2018-07-07T11:49:32.557Z,32.67
2018-07-07T11:50:32.709Z,32.47
2018-07-07T11:51:32.847Z,32.18
2018-07-07T11:52:32.983Z,31.50
2018-07-07T11:53:33.124Z,31.60
2018-07-07T11:54:33.274Z,31.70
2018-07-07T11:55:33.416Z,31.70
2018-07-07T11:56:33.563Z,30.92
2018-07-07T11:57:33.703Z,30.63
2018-07-07T11:58:33.844Z,31.50
2018-07-07T11:59:33.990Z,31.70
2018-07-07T12:00:34.136Z,32.00
2018-07-07T12:01:34.280Z,31.91
2018-07-07T12:02:34.424Z,32.39
2018-07-07T12:03:34.564Z,32.59
2018-07-07T12:04:34.789Z,32.87
2018-07-07T12:05:34.875Z,33.75
2018-07-07T12:06:35.023Z,33.36
2018-07-07T12:07:35.168Z,33.46
2018-07-07T12:08:35.325Z,33.28
2018-07-07T12:09:35.474Z,32.99
2018-07-07T12:10:35.617Z,33.18
2018-07-07T12:11:35.816Z,32.60
2018-07-07T12:12:35.921Z,32.50
2018-07-07T12:13:36.065Z,32.50
2018-07-07T12:14:36.218Z,32.60
2018-07-07T12:15:36.375Z,32.79
2018-07-07T12:16:36.516Z,32.99
2018-07-07T12:17:36.662Z,32.89
2018-07-07T12:18:36.847Z,32.42
2018-07-07T12:19:36.966Z,31.07
2018-07-07T12:20:37.127Z,31.92
2018-07-07T12:21:37.269Z,32.23
2018-07-07T12:22:37.415Z,32.13
2018-07-07T12:23:37.559Z,32.62
2018-07-07T12:24:37.743Z,31.84
2018-07-07T12:25:37.881Z,32.42
2018-07-07T12:26:38.026Z,32.62
2018-07-07T12:27:38.170Z,32.62
2018-07-07T12:28:38.413Z,32.42
2018-07-07T12:29:38.486Z,32.34
2018-07-07T12:30:38.631Z,32.73
2018-07-07T12:31:38.780Z,32.92
2018-07-07T12:32:38.920Z,32.34
2018-07-07T12:33:39.062Z,32.54
2018-07-07T12:34:39.203Z,32.73
2018-07-07T12:35:39.379Z,32.73
2018-07-07T12:36:39.559Z,32.92
2018-07-07T12:37:39.658Z,32.55
2018-07-07T12:38:39.813Z,32.17
2018-07-07T12:39:39.957Z,31.68
2018-07-07T12:40:40.112Z,30.90
2018-07-07T12:41:40.240Z,31.18
2018-07-07T12:42:40.386Z,30.41
2018-07-07T12:43:40.599Z,30.51
2018-07-07T12:44:40.699Z,31.00
2018-07-07T12:45:42.981Z,31.27
2018-07-07T12:46:41.018Z,30.51
2018-07-07T12:47:41.160Z,30.71
2018-07-07T12:48:41.294Z,30.50
2018-07-07T12:49:41.440Z,30.40
2018-07-07T12:50:41.583Z,32.15
2018-07-07T12:51:41.725Z,31.77
2018-07-07T12:52:41.887Z,31.97
2018-07-07T12:53:42.017Z,31.19
2018-07-07T12:54:42.148Z,31.77